Time;durP1;ratioP1;P1;durP2;ratioP2;P2;SDS_P1;SDS_P2;PMS_P1;PMS_P2;Temp;Humidity;BMP_temperature;BMP_pressure;BME280_temperature;BME280_humidity;BME280_pressure;Samples;Min_cycle;Max_cycle;Signal;HPM_P1;HPM_P2
2021/12/21 00:01:52;;;;;;;8.80;3.80;;;-2.10;78.40;;;;;;4085463;28;20451;-83
2021/12/21 00:03:53;;;;;;;15.48;3.72;;;-2.10;78.30;;;;;;4107726;28;20031;-84
2021/12/21 00:05:54;;;;;;;18.98;4.65;;;-2.20;78.90;;;;;;4109429;28;20058;-84
2021/12/21 00:07:58;;;;;;;13.20;3.65;;;-2.10;78.10;;;;;;4097259;28;20051;-84
2021/12/21 00:09:59;;;;;;;13.27;3.35;;;-2.20;78.00;;;;;;4095582;28;20102;-84
2021/12/21 00:12:01;;;;;;;10.38;3.53;;;-2.20;77.90;;;;;;4113621;28;20401;-84
2021/12/21 00:14:18;;;;;;;11.10;3.63;;;-2.20;77.70;;;;;;4097874;28;20037;-84
2021/12/21 00:21:05;;;;;;;9.98;3.53;;;-2.20;77.40;;;;;;4115013;28;20493;-85
2021/12/21 00:23:30;;;;;;;9.70;3.65;;;-2.20;77.30;;;;;;4126829;28;20030;-86
2021/12/21 00:25:31;;;;;;;12.52;3.53;;;-2.10;77.30;;;;;;4124104;28;20058;-85
2021/12/21 00:27:32;;;;;;;13.43;3.75;;;-2.20;77.10;;;;;;4116674;28;20031;-85
2021/12/21 00:29:32;;;;;;;14.65;3.95;;;-2.20;77.10;;;;;;4128799;28;20034;-85
2021/12/21 00:31:35;;;;;;;8.75;3.20;;;-2.20;77.00;;;;;;4109190;28;20038;-85
2021/12/21 00:33:39;;;;;;;8.68;3.45;;;-2.20;77.00;;;;;;4126670;28;20062;-85
2021/12/21 00:35:40;;;;;;;10.07;3.38;;;-2.20;77.00;;;;;;4107398;28;20042;-86
2021/12/21 00:37:42;;;;;;;13.63;3.78;;;-2.10;77.20;;;;;;4112421;28;20450;-85
2021/12/21 00:39:42;;;;;;;10.55;4.25;;;-2.20;77.40;;;;;;4114991;28;20027;-86
2021/12/21 00:41:43;;;;;;;8.27;3.67;;;-2.20;77.60;;;;;;4116051;28;20041;-86
2021/12/21 00:43:43;;;;;;;9.02;3.58;;;-2.20;77.70;;;;;;4098082;28;20022;-86
2021/12/21 00:45:44;;;;;;;9.40;3.53;;;-2.20;77.80;;;;;;4128226;28;20022;-86
2021/12/21 00:47:48;;;;;;;9.55;3.80;;;-2.20;77.90;;;;;;4096342;28;20098;-86
2021/12/21 00:49:58;;;;;;;13.50;4.13;;;-2.20;78.00;;;;;;4111379;28;20019;-86
2021/12/21 00:51:58;;;;;;;11.30;3.63;;;-2.20;78.00;;;;;;4111891;28;20572;-86
2021/12/21 00:53:59;;;;;;;13.38;3.90;;;-2.20;78.80;;;;;;4113695;28;20082;-86
2021/12/21 00:55:59;;;;;;;12.50;4.03;;;-2.10;78.20;;;;;;4111943;28;20541;-86
2021/12/21 00:58:00;;;;;;;9.27;3.65;;;-2.10;78.20;;;;;;4125236;28;20106;-86
2021/12/21 01:00:01;;;;;;;12.27;4.40;;;-2.20;78.10;;;;;;4123461;28;20023;-86
2021/12/21 01:02:02;;;;;;;8.40;3.55;;;-2.20;78.00;;;;;;4110916;28;20069;-85
2021/12/21 01:04:09;;;;;;;9.77;3.63;;;-2.20;78.00;;;;;;4131341;28;20026;-86
2021/12/21 01:06:57;;;;;;;11.20;3.72;;;-2.20;77.90;;;;;;4123857;28;20030;-84
2021/12/21 01:08:54;;;;;;;11.15;3.42;;;-2.20;77.90;;;;;;4111337;28;20110;-84
2021/12/21 01:11:16;;;;;;;12.95;3.40;;;-2.20;77.80;;;;;;4098420;28;20027;-84
2021/12/21 01:13:35;;;;;;;12.15;3.78;;;-2.20;77.70;;;;;;4127210;28;20496;-84
2021/12/21 01:17:57;;;;;;;9.52;4.15;;;-2.20;77.20;;;;;;4109839;28;20024;-84
2021/12/21 01:20:12;;;;;;;9.52;3.58;;;-2.30;76.80;;;;;;4099513;28;20043;-84
2021/12/21 01:22:46;;;;;;;10.90;3.55;;;-2.30;76.60;;;;;;4092969;28;20079;-83
2021/12/21 01:25:38;;;;;;;11.18;3.67;;;-2.30;76.50;;;;;;4095303;28;20551;-83
2021/12/21 01:27:39;;;;;;;;;;;-2.40;76.50;;;;;;4085055;28;20473;-84
2021/12/21 01:29:53;;;;;;;6.15;3.30;;;-2.40;76.70;;;;;;4110267;28;19914;-84
2021/12/21 01:36:37;;;;;;;10.93;3.70;;;-2.50;76.50;;;;;;4100516;28;20031;-84
2021/12/21 01:38:53;;;;;;;9.35;2.95;;;-2.50;76.60;;;;;;4121241;28;20069;-84
2021/12/21 01:43:12;;;;;;;10.15;3.85;;;-2.50;76.70;;;;;;4109968;28;20022;-84
2021/12/21 01:49:56;;;;;;;14.00;4.28;;;-2.50;76.90;;;;;;4122334;28;20058;-82
2021/12/21 01:51:57;;;;;;;12.75;4.70;;;-2.50;77.20;;;;;;4110308;28;20047;-81
2021/12/21 01:53:58;;;;;;;12.45;4.20;;;-2.60;77.50;;;;;;4116521;28;20027;-82
2021/12/21 01:55:58;;;;;;;14.32;4.38;;;-2.60;77.80;;;;;;4093926;28;20073;-82
2021/12/21 01:57:59;;;;;;;13.77;3.97;;;-2.60;78.10;;;;;;4129670;28;20065;-81
2021/12/21 02:00:00;;;;;;;9.27;3.50;;;-2.60;78.20;;;;;;4121933;28;20049;-81
2021/12/21 02:02:00;;;;;;;10.10;3.60;;;-2.60;78.30;;;;;;4109998;28;20050;-82
2021/12/21 02:04:01;;;;;;;9.10;3.20;;;-2.60;79.10;;;;;;4095568;28;20078;-84
2021/12/21 02:06:02;;;;;;;7.93;3.30;;;-2.40;78.40;;;;;;4138471;23;20039;-84
2021/12/21 02:08:03;;;;;;;8.38;3.00;;;-2.60;78.10;;;;;;4150084;28;20130;-83
2021/12/21 02:10:04;;;;;;;12.10;3.20;;;-2.60;77.80;;;;;;4139591;28;20109;-83
2021/12/21 02:12:08;;;;;;;10.98;4.15;;;-2.60;77.50;;;;;;4153892;28;20029;-83
2021/12/21 02:14:10;;;;;;;11.32;3.33;;;-2.60;77.30;;;;;;4158028;28;20036;-83
2021/12/21 02:16:11;;;;;;;11.23;3.63;;;-2.60;77.10;;;;;;4152708;28;20537;-82
2021/12/21 02:22:33;;;;;;;9.93;3.42;;;-2.70;76.60;;;;;;4152506;28;20029;-83
2021/12/21 02:24:44;;;;;;;8.02;3.55;;;-2.60;76.60;;;;;;4147480;28;20053;-83
2021/12/21 02:26:54;;;;;;;9.48;3.83;;;-2.70;76.50;;;;;;4165270;28;20033;-82
2021/12/21 02:29:14;;;;;;;13.85;3.85;;;-2.70;76.40;;;;;;4147690;28;20029;-82
2021/12/21 02:31:17;;;;;;;8.55;3.40;;;-2.80;76.20;;;;;;4133918;28;20420;-83
2021/12/21 02:33:17;;;;;;;10.60;3.35;;;-2.80;76.10;;;;;;4147442;28;20401;-82
2021/12/21 02:35:18;;;;;;;12.43;3.15;;;-2.90;76.00;;;;;;4147085;28;20036;-83
2021/12/21 02:37:19;;;;;;;10.57;4.18;;;-2.90;75.90;;;;;;4148880;28;20553;-83
2021/12/21 02:39:20;;;;;;;7.75;3.35;;;-2.90;75.90;;;;;;4150097;28;20515;-82
2021/12/21 02:41:21;;;;;;;7.68;3.33;;;-2.90;75.80;;;;;;4147287;28;20427;-82
2021/12/21 02:43:22;;;;;;;11.02;3.65;;;-2.90;75.80;;;;;;4151632;28;20121;-83
2021/12/21 02:45:22;;;;;;;9.85;3.78;;;-3.00;75.80;;;;;;4149766;28;20092;-83
2021/12/21 02:47:23;;;;;;;10.60;4.53;;;-3.00;75.90;;;;;;4148754;28;20022;-82
2021/12/21 02:49:24;;;;;;;13.77;4.45;;;-3.10;76.10;;;;;;4146467;28;21501;-82
2021/12/21 02:51:24;;;;;;;10.57;4.50;;;-3.10;76.40;;;;;;4149944;28;20049;-83
2021/12/21 02:53:25;;;;;;;10.68;3.78;;;-3.00;76.80;;;;;;4150698;28;20034;-82
2021/12/21 02:55:26;;;;;;;11.77;4.20;;;-3.00;77.20;;;;;;4149385;28;20044;-83
2021/12/21 02:57:26;;;;;;;11.27;3.88;;;-3.00;77.50;;;;;;4145115;28;20407;-82
2021/12/21 02:59:27;;;;;;;8.65;3.70;;;-3.00;77.60;;;;;;4146844;28;20530;-81
2021/12/21 03:01:29;;;;;;;10.38;3.58;;;-2.90;77.70;;;;;;4143674;28;20485;-81
2021/12/21 03:03:29;;;;;;;11.02;4.15;;;-3.00;77.50;;;;;;4155887;28;20033;-82
2021/12/21 03:05:31;;;;;;;6.80;3.50;;;-3.00;77.30;;;;;;4146317;28;20096;-83
2021/12/21 03:09:39;;;;;;;10.23;4.15;;;-3.00;76.80;;;;;;4146711;28;20175;-82
2021/12/21 03:12:09;;;;;;;8.10;3.70;;;-3.00;76.70;;;;;;4143814;28;20661;-81
2021/12/21 03:14:08;;;;;;;9.93;3.40;;;-3.00;76.60;;;;;;4135877;28;20030;-81
2021/12/21 03:16:11;;;;;;;10.00;4.18;;;-3.00;76.50;;;;;;4150218;28;20561;-83
2021/12/21 03:18:12;;;;;;;12.07;3.78;;;-3.10;76.40;;;;;;4145469;28;20037;-84
2021/12/21 03:20:13;;;;;;;7.95;3.40;;;-3.10;76.30;;;;;;4128415;28;20812;-84
2021/12/21 03:22:14;;;;;;;10.63;3.60;;;-3.10;76.20;;;;;;4147778;28;20030;-84
2021/12/21 03:24:15;;;;;;;10.02;4.55;;;-3.10;76.10;;;;;;4148147;28;20022;-84
2021/12/21 03:26:15;;;;;;;13.93;4.18;;;-3.10;76.10;;;;;;4147131;28;20082;-84
2021/12/21 03:28:16;;;;;;;11.13;3.60;;;-3.20;76.00;;;;;;4146776;28;20036;-83
2021/12/21 03:30:17;;;;;;;8.60;3.38;;;-3.30;75.90;;;;;;4149494;28;20026;-84
2021/12/21 03:32:17;;;;;;;10.98;3.75;;;-3.30;75.90;;;;;;4131265;28;20432;-83
2021/12/21 03:34:18;;;;;;;8.95;3.53;;;-3.30;76.00;;;;;;4115169;28;20095;-83
2021/12/21 03:36:18;;;;;;;7.88;3.60;;;-3.30;76.00;;;;;;4142793;28;20034;-83
2021/12/21 03:38:19;;;;;;;6.55;3.22;;;-3.40;75.90;;;;;;4147803;28;20026;-83
2021/12/21 03:40:20;;;;;;;8.60;4.13;;;-3.40;76.00;;;;;;4131062;28;20039;-84
2021/12/21 03:42:20;;;;;;;7.45;3.60;;;-3.40;76.10;;;;;;4135190;28;20527;-83
2021/12/21 03:44:21;;;;;;;15.60;4.68;;;-3.40;76.10;;;;;;4135113;28;20065;-82
2021/12/21 03:46:24;;;;;;;14.27;5.10;;;-3.50;76.00;;;;;;4151130;28;20030;-83
2021/12/21 03:48:24;;;;;;;16.10;8.18;;;-3.50;76.10;;;;;;4150282;28;20033;-82
2021/12/21 03:50:27;;;;;;;17.58;6.70;;;-3.50;76.00;;;;;;4118697;28;20062;-82
2021/12/21 03:52:28;;;;;;;10.30;5.25;;;-3.50;76.00;;;;;;4152430;28;20030;-83
2021/12/21 03:54:29;;;;;;;8.07;4.70;;;-3.50;76.00;;;;;;4150733;28;20224;-83
2021/12/21 03:56:40;;;;;;;26.85;11.82;;;-3.40;76.10;;;;;;4152918;28;20042;-82
2021/12/21 03:58:41;;;;;;;46.55;25.35;;;-3.50;76.00;;;;;;4147334;28;20062;-83
2021/12/21 04:00:42;;;;;;;47.10;26.02;;;-3.60;76.00;;;;;;4132278;28;20026;-83
2021/12/21 04:02:42;;;;;;;40.58;22.60;;;-3.50;76.10;;;;;;4151788;28;20026;-84
2021/12/21 04:04:43;;;;;;;20.40;11.80;;;-3.60;76.00;;;;;;4133700;28;21191;-83
2021/12/21 04:06:44;;;;;;;14.88;7.68;;;-3.60;76.00;;;;;;4148997;28;20029;-83
2021/12/21 04:08:45;;;;;;;14.82;6.30;;;-3.60;76.00;;;;;;4149660;28;20029;-83
2021/12/21 04:10:45;;;;;;;10.00;4.90;;;-3.60;76.00;;;;;;4150074;28;20106;-83
2021/12/21 04:12:46;;;;;;;8.93;4.57;;;-3.60;76.00;;;;;;4152537;28;20026;-83
2021/12/21 04:14:47;;;;;;;15.35;4.22;;;-3.50;75.90;;;;;;4152109;28;20531;-82
2021/12/21 04:16:49;;;;;;;12.43;4.05;;;-3.60;76.00;;;;;;4152178;28;20030;-83
2021/12/21 04:18:49;;;;;;;9.85;4.05;;;-3.60;76.00;;;;;;4164456;28;20029;-82
2021/12/21 04:20:50;;;;;;;8.20;3.58;;;-3.70;75.90;;;;;;4126999;28;20038;-82
2021/12/21 04:22:51;;;;;;;7.70;3.60;;;-3.70;75.90;;;;;;4147356;28;20030;-83
2021/12/21 04:24:51;;;;;;;9.60;3.50;;;-3.60;76.00;;;;;;4153247;28;20048;-82
2021/12/21 04:26:52;;;;;;;12.95;4.25;;;-3.70;75.90;;;;;;4150680;28;20056;-82
2021/12/21 04:28:53;;;;;;;16.10;8.48;;;-3.70;76.00;;;;;;4153652;28;20061;-84
2021/12/21 04:30:53;;;;;;;18.05;5.60;;;-3.70;76.00;;;;;;4163615;28;20128;-83
2021/12/21 04:32:54;;;;;;;16.58;6.20;;;-3.70;76.00;;;;;;4141810;28;20080;-86
2021/12/21 04:34:55;;;;;;;17.85;6.38;;;-3.60;76.00;;;;;;4143696;28;20054;-85
2021/12/21 04:36:55;;;;;;;19.20;6.07;;;-3.80;75.80;;;;;;4137933;28;20034;-86
2021/12/21 04:38:58;;;;;;;13.45;4.80;;;-3.80;75.80;;;;;;4142347;28;20515;-84
2021/12/21 04:41:06;;;;;;;14.05;5.38;;;-3.80;75.80;;;;;;4142584;28;20081;-85
2021/12/21 04:43:07;;;;;;;15.77;5.07;;;-3.80;75.80;;;;;;4130348;28;20026;-85
2021/12/21 04:45:08;;;;;;;11.80;4.03;;;-3.80;75.80;;;;;;4147857;28;20022;-84
2021/12/21 04:47:08;;;;;;;11.50;3.78;;;-3.80;75.80;;;;;;4141381;28;20022;-85
2021/12/21 04:49:09;;;;;;;9.50;3.72;;;-3.90;75.80;;;;;;4147429;28;20032;-85
2021/12/21 04:51:09;;;;;;;9.85;3.47;;;-3.90;75.80;;;;;;4125757;28;20060;-84
2021/12/21 04:53:10;;;;;;;8.73;3.60;;;-3.90;75.90;;;;;;4147701;28;20033;-84
2021/12/21 04:55:11;;;;;;;8.40;3.63;;;-4.00;75.90;;;;;;4145441;28;20411;-83
2021/12/21 04:57:11;;;;;;;9.07;3.88;;;-3.90;76.00;;;;;;4132395;28;20053;-84
2021/12/21 04:59:12;;;;;;;12.93;4.13;;;-4.00;76.10;;;;;;4128206;28;20026;-84
2021/12/21 05:01:14;;;;;;;9.95;3.85;;;-4.00;76.30;;;;;;4145837;28;20044;-84
2021/12/21 05:03:15;;;;;;;8.53;3.53;;;-4.00;76.40;;;;;;4148726;28;20056;-82
2021/12/21 05:05:16;;;;;;;7.82;3.20;;;-4.00;76.50;;;;;;4149319;28;20075;-82
2021/12/21 05:07:22;;;;;;;16.30;3.95;;;-4.00;76.50;;;;;;4145571;28;20161;-84
2021/12/21 05:09:26;;;;;;;13.80;3.92;;;-4.00;76.60;;;;;;4147197;28;20488;-83
2021/12/21 05:11:32;;;;;;;8.55;3.17;;;-4.00;76.60;;;;;;4147302;28;20040;-83
2021/12/21 05:13:37;;;;;;;9.13;3.05;;;-4.00;76.60;;;;;;4146493;28;20037;-83
2021/12/21 05:15:38;;;;;;;20.13;6.70;;;-4.00;76.60;;;;;;4144365;28;20050;-85
2021/12/21 05:17:38;;;;;;;18.80;6.90;;;-4.10;76.50;;;;;;4167841;28;20656;-85
2021/12/21 05:19:39;;;;;;;18.98;7.63;;;-4.10;76.50;;;;;;4153036;28;20034;-85
2021/12/21 05:21:39;;;;;;;16.83;6.85;;;-4.10;76.50;;;;;;4146591;28;20288;-85
2021/12/21 05:23:40;;;;;;;11.13;4.95;;;-4.10;76.40;;;;;;4146459;28;20041;-85
2021/12/21 05:25:41;;;;;;;9.02;4.05;;;-4.00;76.50;;;;;;4146346;28;20470;-85
2021/12/21 05:27:42;;;;;;;14.63;4.05;;;-4.00;77.10;;;;;;4149395;28;20121;-84
2021/12/21 05:29:42;;;;;;;7.38;3.60;;;-4.10;76.30;;;;;;4152811;28;20538;-85
2021/12/21 05:31:43;;;;;;;7.45;3.30;;;-4.00;76.30;;;;;;4146328;28;20037;-83
2021/12/21 05:33:45;;;;;;;14.40;4.35;;;-4.10;76.20;;;;;;4148180;28;20496;-83
2021/12/21 05:35:47;;;;;;;12.63;3.88;;;-4.10;76.20;;;;;;4142986;28;20266;-84
2021/12/21 05:37:51;;;;;;;14.63;3.80;;;-4.10;76.20;;;;;;4147804;28;20030;-84
2021/12/21 05:40:09;;;;;;;9.45;3.95;;;-4.10;76.20;;;;;;4161921;28;20135;-83
2021/12/21 05:42:10;;;;;;;11.00;4.05;;;-4.10;76.20;;;;;;4144745;28;20030;-83
2021/12/21 05:44:11;;;;;;;8.68;4.15;;;-4.10;76.20;;;;;;4148457;28;20030;-85
2021/12/21 05:46:11;;;;;;;11.52;4.05;;;-4.20;76.20;;;;;;4145973;28;20530;-83
2021/12/21 05:48:12;;;;;;;9.40;3.97;;;-4.20;76.20;;;;;;4133677;28;20061;-84
2021/12/21 05:50:16;;;;;;;11.95;3.85;;;-4.20;76.30;;;;;;4148048;28;20034;-82
2021/12/21 05:52:17;;;;;;;9.10;3.97;;;-4.20;76.50;;;;;;4146700;28;20022;-83
2021/12/21 05:54:21;;;;;;;9.15;3.80;;;-4.20;76.60;;;;;;4152397;28;20631;-84
2021/12/21 05:56:22;;;;;;;9.18;3.78;;;-4.10;76.80;;;;;;4130640;28;20121;-84
2021/12/21 05:58:22;;;;;;;13.40;4.18;;;-4.10;76.90;;;;;;4150760;28;20032;-84
2021/12/21 06:00:28;;;;;;;14.88;4.53;;;-4.10;77.00;;;;;;4144588;28;20449;-84
2021/12/21 06:02:28;;;;;;;9.85;3.97;;;-4.10;77.00;;;;;;4150101;28;20025;-84
2021/12/21 06:04:29;;;;;;;8.13;3.97;;;-4.10;77.10;;;;;;4130428;28;20042;-84
2021/12/21 06:06:31;;;;;;;11.27;4.13;;;-4.10;77.00;;;;;;4146715;28;20046;-84
2021/12/21 06:08:32;;;;;;;9.15;3.83;;;-4.10;77.00;;;;;;4146498;28;20013;-84
2021/12/21 06:10:37;;;;;;;8.48;3.70;;;-4.10;77.00;;;;;;4147745;28;20029;-85
2021/12/21 06:15:16;;;;;;;8.32;3.50;;;-4.00;77.00;;;;;;4149561;28;20093;-84
2021/12/21 06:26:43;;;;;;;9.05;3.83;;;-4.00;76.80;;;;;;4134060;28;20712;-84
2021/12/21 06:28:45;;;;;;;9.77;3.53;;;-4.00;76.80;;;;;;4148033;28;20070;-83
2021/12/21 06:30:46;;;;;;;10.40;3.72;;;-3.90;76.90;;;;;;4146777;28;20076;-84
2021/12/21 06:32:46;;;;;;;8.80;3.13;;;-4.00;76.90;;;;;;4148616;28;20038;-84
2021/12/21 06:34:47;;;;;;;7.65;3.65;;;-3.90;76.90;;;;;;4150696;28;20033;-82
2021/12/21 06:36:48;;;;;;;9.15;3.53;;;-4.00;76.90;;;;;;4137519;28;20034;-83
2021/12/21 06:38:49;;;;;;;9.73;3.70;;;-3.90;77.00;;;;;;4122372;28;20022;-84
2021/12/21 06:40:50;;;;;;;12.77;3.97;;;-3.90;76.90;;;;;;4154628;28;20037;-85
2021/12/21 06:42:51;;;;;;;8.40;3.83;;;-3.90;76.90;;;;;;4152573;28;20033;-85
2021/12/21 06:44:56;;;;;;;10.65;3.78;;;-3.90;76.80;;;;;;4153693;28;20033;-85
2021/12/21 06:51:33;;;;;;;14.52;4.03;;;-3.80;76.80;;;;;;4146839;28;20446;-84
2021/12/21 06:53:36;;;;;;;14.15;4.00;;;-3.80;76.70;;;;;;4139998;28;20038;-85
2021/12/21 06:55:36;;;;;;;7.45;3.97;;;-3.80;76.60;;;;;;4148700;28;20034;-84
2021/12/21 06:57:43;;;;;;;8.88;3.60;;;-3.90;76.60;;;;;;4112977;28;20037;-85
2021/12/21 06:59:44;;;;;;;8.23;3.83;;;-3.90;76.50;;;;;;4150030;28;20621;-84
2021/12/21 07:01:45;;;;;;;9.40;3.85;;;-3.90;76.50;;;;;;4151744;28;20030;-83
2021/12/21 07:03:46;;;;;;;7.45;3.60;;;-3.90;76.40;;;;;;4154086;28;20507;-84
2021/12/21 07:05:49;;;;;;;10.20;3.65;;;-3.90;76.40;;;;;;4132243;28;20054;-84
2021/12/21 07:07:54;;;;;;;8.25;3.78;;;-3.90;76.40;;;;;;4153444;28;20574;-83
2021/12/21 07:10:00;;;;;;;12.02;4.45;;;-3.90;76.30;;;;;;4135223;28;20111;-84
2021/12/21 07:18:57;;;;;;;7.35;3.83;;;-3.90;76.20;;;;;;4150040;28;20520;-83
2021/12/21 07:20:59;;;;;;;10.57;4.32;;;-3.90;76.20;;;;;;4099380;28;20043;-83
2021/12/21 07:22:59;;;;;;;11.02;4.18;;;-3.90;76.10;;;;;;4148983;28;20033;-84
2021/12/21 07:25:00;;;;;;;11.10;4.00;;;-3.90;76.10;;;;;;4138077;28;20026;-83
2021/12/21 07:27:01;;;;;;;9.73;4.00;;;-4.00;76.20;;;;;;4148630;28;20065;-83
2021/12/21 07:29:02;;;;;;;8.40;3.67;;;-3.90;76.20;;;;;;4152461;28;20030;-83
2021/12/21 07:31:02;;;;;;;12.18;3.60;;;-3.90;76.20;;;;;;4150831;28;20033;-84
2021/12/21 07:33:03;;;;;;;8.82;3.83;;;-3.90;76.20;;;;;;4119052;28;20720;-83
2021/12/21 07:35:05;;;;;;;8.07;3.92;;;-4.00;76.10;;;;;;4143820;28;20555;-83
2021/12/21 07:37:09;;;;;;;9.77;4.00;;;-4.00;76.00;;;;;;4133955;28;20037;-83
2021/12/21 07:39:14;;;;;;;9.13;3.50;;;-4.00;76.00;;;;;;4151879;28;20159;-83
2021/12/21 07:41:15;;;;;;;12.65;4.15;;;-4.00;76.00;;;;;;4150010;28;20029;-83
2021/12/21 07:43:16;;;;;;;8.00;3.45;;;-3.90;76.00;;;;;;4166629;28;20111;-84
2021/12/21 07:45:16;;;;;;;17.42;3.60;;;-4.00;75.90;;;;;;4150899;28;20061;-83
2021/12/21 07:47:17;;;;;;;7.40;3.50;;;-4.00;75.90;;;;;;4155867;28;20037;-84
2021/12/21 07:49:18;;;;;;;14.75;4.22;;;-4.00;76.00;;;;;;4156046;28;20091;-83
2021/12/21 07:51:19;;;;;;;10.00;3.95;;;-3.90;76.00;;;;;;4160389;28;20108;-83
2021/12/21 07:53:20;;;;;;;7.45;3.83;;;-4.00;76.00;;;;;;4162640;28;20030;-82
2021/12/21 07:55:21;;;;;;;12.30;4.03;;;-3.90;76.00;;;;;;4154207;28;20069;-83
2021/12/21 07:57:22;;;;;;;13.60;4.22;;;-4.00;75.90;;;;;;4154658;28;20349;-82
2021/12/21 07:59:22;;;;;;;8.15;3.80;;;-4.00;75.80;;;;;;4160294;28;20065;-84
2021/12/21 08:01:23;;;;;;;9.43;3.67;;;-4.00;75.80;;;;;;4162143;28;20041;-82
2021/12/21 08:03:24;;;;;;;11.45;4.13;;;-4.00;75.70;;;;;;4158610;28;20038;-83
2021/12/21 08:05:30;;;;;;;14.45;4.47;;;-4.00;75.70;;;;;;4157357;28;20026;-83
2021/12/21 08:07:38;;;;;;;10.23;4.35;;;-4.00;75.80;;;;;;4186117;23;20490;-86
2021/12/21 08:09:46;;;;;;;11.45;4.05;;;-4.00;75.70;;;;;;4094727;28;20513;-86
2021/12/21 08:14:23;;;;;;;8.80;4.07;;;-4.10;75.60;;;;;;4143999;28;20037;-86
2021/12/21 08:16:39;;;;;;;24.85;3.85;;;-4.10;75.70;;;;;;4165009;28;20281;-86
2021/12/21 08:19:40;;;;;;;;;;;;;;;;;;;;;
2021/12/21 08:21:44;;;;;;;11.30;3.35;;;-4.10;76.50;;;;;;4148241;28;20026;-87
2021/12/21 08:23:52;;;;;;;10.05;3.60;;;-4.10;75.80;;;;;;4131284;28;20023;-87
2021/12/21 08:26:04;;;;;;;11.23;3.50;;;-4.10;75.90;;;;;;4144194;28;20022;-86
2021/12/21 08:28:11;;;;;;;11.52;4.30;;;-4.10;76.00;;;;;;4145692;28;20018;-86
2021/12/21 08:30:33;;;;;;;16.38;4.05;;;-4.10;76.00;;;;;;4164196;28;20173;-86
2021/12/21 08:32:42;;;;;;;16.35;4.90;;;-4.00;76.10;;;;;;4136437;28;20019;-87
2021/12/21 08:34:52;;;;;;;11.02;4.13;;;-4.00;76.20;;;;;;4143228;28;20019;-87
2021/12/21 08:37:05;;;;;;;11.15;5.03;;;-4.00;76.30;;;;;;4132251;28;20049;-87
2021/12/21 08:39:11;;;;;;;12.60;4.72;;;-4.10;76.20;;;;;;4130244;28;20035;-87
2021/12/21 08:41:30;;;;;;;;;;;;;;;;;;;;;
2021/12/21 08:43:32;;;;;;;17.98;5.80;;;-4.00;76.40;;;;;;4128734;28;20035;-86
2021/12/21 08:45:48;;;;;;;10.85;4.30;;;-3.90;76.40;;;;;;4145984;28;20015;-86
2021/12/21 08:47:49;;;;;;;10.23;4.35;;;-4.00;76.40;;;;;;4118342;28;20024;-86
2021/12/21 08:49:52;;;;;;;23.42;5.30;;;-4.00;76.60;;;;;;4147495;28;20057;-86
2021/12/21 08:52:14;;;;;;;14.35;4.90;;;-4.00;76.60;;;;;;4150901;28;20033;-86
2021/12/21 08:54:19;;;;;;;13.75;4.93;;;-3.90;77.00;;;;;;4141154;28;20034;-86
2021/12/21 08:56:44;;;;;;;10.30;4.30;;;-3.90;77.20;;;;;;4125970;28;20571;-87
2021/12/21 08:58:54;;;;;;;11.85;5.10;;;-3.90;77.40;;;;;;4146682;28;20029;-87
2021/12/21 09:01:04;;;;;;;10.55;4.70;;;-3.80;77.50;;;;;;4139744;28;20040;-85
2021/12/21 09:03:10;;;;;;;11.02;4.25;;;-3.80;77.60;;;;;;4113378;28;20031;-86
2021/12/21 09:05:21;;;;;;;11.75;4.40;;;-3.80;77.70;;;;;;4119933;28;20476;-86
2021/12/21 09:07:30;;;;;;;12.02;4.63;;;-3.70;77.80;;;;;;4112288;28;20039;-86
2021/12/21 09:10:05;;;;;;;18.52;5.00;;;-3.70;77.90;;;;;;4140235;28;20229;-86
2021/12/21 09:12:11;;;;;;;14.90;5.85;;;-3.60;78.00;;;;;;4144516;28;20025;-86
2021/12/21 09:14:12;;;;;;;19.85;4.65;;;-3.60;77.90;;;;;;4137055;28;20064;-86
2021/12/21 09:16:13;;;;;;;13.35;4.45;;;-3.50;78.00;;;;;;4138567;28;20651;-86
2021/12/21 09:18:14;;;;;;;13.07;4.45;;;-3.50;78.00;;;;;;4144737;28;20030;-86
2021/12/21 09:20:17;;;;;;;16.85;4.68;;;-3.40;78.10;;;;;;4142076;28;20110;-87
2021/12/21 09:22:17;;;;;;;11.23;4.65;;;-3.40;78.20;;;;;;4139271;28;20596;-86
2021/12/21 09:24:18;;;;;;;12.07;4.88;;;-3.30;78.30;;;;;;4124418;28;20046;-86
2021/12/21 09:26:19;;;;;;;19.00;4.93;;;-3.30;78.30;;;;;;4135671;28;20025;-88
2021/12/21 09:28:19;;;;;;;14.70;4.40;;;-3.20;78.40;;;;;;4100797;28;20324;-86
2021/12/21 09:30:21;;;;;;;17.38;5.03;;;-3.10;78.60;;;;;;4126007;28;20038;-87
2021/12/21 09:32:25;;;;;;;11.27;4.45;;;-3.10;78.70;;;;;;4111354;28;20113;-87
2021/12/21 09:34:26;;;;;;;7.75;4.20;;;-3.00;78.80;;;;;;4136251;28;20065;-87
2021/12/21 09:36:28;;;;;;;8.65;4.00;;;-3.00;79.00;;;;;;4121985;28;20239;-87
2021/12/21 09:38:29;;;;;;;10.43;4.13;;;-2.90;79.10;;;;;;4121883;28;20144;-87
2021/12/21 09:40:30;;;;;;;10.13;3.88;;;-2.90;79.10;;;;;;4136593;28;20042;-87
2021/12/21 09:42:36;;;;;;;7.43;3.55;;;-2.80;79.20;;;;;;4125601;28;20049;-87
2021/12/21 09:44:38;;;;;;;15.70;4.47;;;-2.70;79.30;;;;;;4128071;28;20026;-87
2021/12/21 09:46:46;;;;;;;10.35;4.07;;;-2.60;79.40;;;;;;4127169;28;20042;-88
2021/12/21 09:48:50;;;;;;;15.35;4.35;;;-2.60;79.40;;;;;;4139799;28;20463;-87
2021/12/21 09:50:51;;;;;;;21.10;5.13;;;-2.50;79.50;;;;;;4121307;28;20031;-86
2021/12/21 09:52:53;;;;;;;10.02;4.57;;;-2.50;79.40;;;;;;4138927;28;20095;-87
2021/12/21 09:54:53;;;;;;;10.82;4.18;;;-2.40;79.50;;;;;;4138345;28;20647;-87
2021/12/21 09:56:54;;;;;;;14.73;4.40;;;-2.30;79.60;;;;;;4141294;28;20040;-87
2021/12/21 09:58:55;;;;;;;14.40;4.22;;;-2.30;79.60;;;;;;4121787;28;20042;-87
2021/12/21 10:00:55;;;;;;;14.35;3.78;;;-2.20;79.60;;;;;;4136390;28;20087;-88
2021/12/21 10:03:08;;;;;;;14.65;4.00;;;-2.20;79.60;;;;;;4142698;28;20507;-87
2021/12/21 10:05:13;;;;;;;7.30;3.35;;;-2.10;79.70;;;;;;4136871;28;20049;-87
2021/12/21 10:07:15;;;;;;;7.97;3.83;;;-2.10;79.60;;;;;;4118192;28;20045;-87
2021/12/21 10:09:16;;;;;;;12.43;3.80;;;-2.00;79.70;;;;;;4143532;28;20037;-88
2021/12/21 10:11:21;;;;;;;16.08;4.50;;;-1.90;79.70;;;;;;4152365;28;20128;-87
2021/12/21 10:13:25;;;;;;;10.10;4.10;;;-1.90;79.70;;;;;;4137609;28;20034;-87
2021/12/21 10:15:26;;;;;;;16.27;3.90;;;-1.80;79.80;;;;;;4141576;28;20488;-87
2021/12/21 10:17:32;;;;;;;11.85;3.72;;;-1.70;79.90;;;;;;4139499;28;20034;-88
2021/12/21 10:19:58;;;;;;;10.63;3.42;;;-1.70;79.90;;;;;;4106849;28;20622;-87
2021/12/21 10:22:21;;;;;;;11.15;3.58;;;-1.60;80.00;;;;;;4151494;28;20037;-87
2021/12/21 10:24:29;;;;;;;12.20;3.28;;;-1.50;80.00;;;;;;4125423;28;20110;-87
2021/12/21 10:26:33;;;;;;;10.55;3.13;;;-1.50;80.00;;;;;;4133292;28;20042;-87
2021/12/21 10:28:42;;;;;;;10.02;3.38;;;-1.40;80.10;;;;;;4137382;28;20030;-87
2021/12/21 10:30:48;;;;;;;10.23;2.67;;;-1.30;80.10;;;;;;4135298;28;20077;-87
2021/12/21 10:32:55;;;;;;;12.40;3.40;;;-1.20;80.10;;;;;;4138672;28;20026;-87
2021/12/21 10:35:01;;;;;;;6.32;3.13;;;-1.20;80.10;;;;;;4137324;28;20265;-86
2021/12/21 10:37:03;;;;;;;7.15;2.90;;;-1.10;80.10;;;;;;4133644;28;20101;-87
2021/12/21 10:39:04;;;;;;;9.15;3.22;;;-1.10;80.10;;;;;;4136999;28;20030;-87
2021/12/21 10:41:09;;;;;;;9.07;2.90;;;-1.00;80.10;;;;;;4142469;28;20057;-87
2021/12/21 10:43:10;;;;;;;11.13;2.90;;;-1.00;80.10;;;;;;4120467;28;20378;-87
2021/12/21 10:45:11;;;;;;;10.27;3.78;;;-0.90;80.00;;;;;;4138157;28;20045;-87
2021/12/21 10:47:12;;;;;;;30.30;10.57;;;-0.80;80.10;;;;;;4136221;28;20059;-87
2021/12/21 10:49:20;;;;;;;15.48;7.07;;;-0.80;80.10;;;;;;4126339;28;20108;-87
2021/12/21 10:51:23;;;;;;;14.88;4.50;;;-0.70;80.00;;;;;;4109764;28;20035;-87
2021/12/21 10:53:25;;;;;;;14.45;4.10;;;-0.60;80.10;;;;;;4138591;28;20077;-87
2021/12/21 10:55:30;;;;;;;18.93;5.97;;;-0.60;79.90;;;;;;4138491;28;20038;-87
2021/12/21 10:57:32;;;;;;;19.83;5.82;;;-0.50;79.90;;;;;;4133535;28;20312;-87
2021/12/21 10:59:41;;;;;;;18.05;5.40;;;-0.50;80.40;;;;;;4134859;28;20093;-87
2021/12/21 11:01:50;;;;;;;20.55;5.68;;;-0.40;79.40;;;;;;4150961;28;20026;-87
2021/12/21 11:04:08;;;;;;;18.92;4.97;;;-0.40;79.20;;;;;;4127973;28;20034;-88
2021/12/21 11:06:32;;;;;;;17.35;4.15;;;-0.40;78.90;;;;;;4097138;28;20106;-87
2021/12/21 11:09:14;;;;;;;16.02;4.50;;;-0.30;78.60;;;;;;4129823;28;20544;-88
2021/12/21 11:11:32;;;;;;;13.48;4.45;;;-0.20;78.30;;;;;;4133193;28;20428;-87
2021/12/21 11:13:33;;;;;;;11.85;3.83;;;-0.20;78.10;;;;;;4121281;28;20924;-88
2021/12/21 11:15:53;;;;;;;11.52;3.38;;;-0.10;78.00;;;;;;4141361;28;20589;-87
2021/12/21 11:17:54;;;;;;;9.18;2.80;;;-0.10;77.80;;;;;;4134529;28;20129;-87
2021/12/21 11:19:55;;;;;;;8.95;2.72;;;0.00;77.80;;;;;;4139726;28;20108;-87
2021/12/21 11:21:56;;;;;;;7.28;2.75;;;0.10;77.70;;;;;;4136934;28;20033;-87
2021/12/21 11:24:00;;;;;;;8.95;2.30;;;0.10;77.40;;;;;;4126355;28;20042;-87
2021/12/21 11:26:01;;;;;;;9.02;2.47;;;0.20;77.10;;;;;;4132429;28;20022;-87
2021/12/21 11:28:03;;;;;;;7.35;2.70;;;0.20;77.00;;;;;;4121975;28;20038;-88
2021/12/21 11:30:20;;;;;;;7.57;2.35;;;0.20;76.70;;;;;;4140205;28;20052;-87
2021/12/21 11:32:24;;;;;;;9.65;2.40;;;0.30;76.40;;;;;;4136110;28;20038;-87
2021/12/21 11:34:33;;;;;;;12.50;2.13;;;0.40;76.20;;;;;;4118585;28;20026;-87
2021/12/21 11:38:57;;;;;;;5.97;2.47;;;0.40;75.50;;;;;;4140265;28;20026;-87